Time;durP1;ratioP1;P1;durP2;ratioP2;P2;SDS_P1;SDS_P2;PMS_P1;PMS_P2;Temp;Humidity;BMP_temperature;BMP_pressure;BME280_temperature;BME280_humidity;BME280_pressure;Samples;Min_cycle;Max_cycle;Signal;HPM_P1;HPM_P2
2021/06/28 00:04:36;;;;;;;3.30;3.00;;;24.10;32.20;;;;;;10433799;28;20229;-78
2021/06/28 00:09:41;;;;;;;3.10;2.90;;;24.00;32.00;;;;;;10427129;28;20568;-77
2021/06/28 00:14:44;;;;;;;3.50;3.20;;;23.90;32.60;;;;;;10426277;28;20239;-78
2021/06/28 00:19:47;;;;;;;3.43;3.17;;;23.80;32.20;;;;;;10428350;28;20233;-78
2021/06/28 00:24:51;;;;;;;3.20;2.90;;;23.70;32.40;;;;;;10434503;28;20217;-78
2021/06/28 00:29:54;;;;;;;3.07;2.67;;;23.60;33.00;;;;;;10425942;28;20229;-78
2021/06/28 00:34:58;;;;;;;3.97;2.83;;;23.50;32.50;;;;;;10428477;28;20759;-78
2021/06/28 00:40:03;;;;;;;3.30;3.10;;;23.40;32.70;;;;;;10417737;28;20222;-78
2021/06/28 00:45:17;;;;;;;3.10;2.90;;;23.40;33.60;;;;;;10434541;28;20220;-78
2021/06/28 00:50:22;;;;;;;3.50;3.03;;;23.30;33.80;;;;;;10429599;28;20240;-77
2021/06/28 00:55:28;;;;;;;3.07;2.87;;;23.20;33.60;;;;;;10429806;28;20237;-78
2021/06/28 01:00:31;;;;;;;4.80;2.97;;;23.10;34.00;;;;;;10428240;28;20231;-78
2021/06/28 01:05:37;;;;;;;3.80;3.13;;;23.00;33.70;;;;;;10425242;28;20258;-78
2021/06/28 01:10:42;;;;;;;4.23;3.43;;;23.00;34.80;;;;;;10429011;28;20278;-78
2021/06/28 01:15:47;;;;;;;3.90;3.00;;;23.00;34.70;;;;;;10428248;28;20225;-78
2021/06/28 01:20:50;;;;;;;3.17;2.87;;;23.00;34.20;;;;;;10429558;28;20213;-78
2021/06/28 01:25:57;;;;;;;3.30;2.90;;;23.00;34.10;;;;;;10427742;28;20225;-78
2021/06/28 01:31:02;;;;;;;3.93;2.97;;;22.90;34.80;;;;;;10428514;28;20240;-78
2021/06/28 01:36:06;;;;;;;3.33;2.97;;;22.90;34.60;;;;;;10421793;28;20232;-77
2021/06/28 01:41:11;;;;;;;6.87;3.57;;;22.90;34.40;;;;;;10429467;28;20225;-78
2021/06/28 01:46:14;;;;;;;3.80;3.50;;;22.90;35.20;;;;;;10428370;28;20229;-78
2021/06/28 01:51:17;;;;;;;6.47;3.20;;;22.90;34.70;;;;;;10428993;28;20224;-77
2021/06/28 01:56:22;;;;;;;3.83;3.30;;;22.90;34.70;;;;;;10427150;28;20709;-78
2021/06/28 02:01:27;;;;;;;3.83;3.40;;;22.80;35.50;;;;;;10432227;28;20237;-78
2021/06/28 02:06:30;;;;;;;4.63;3.50;;;22.80;35.10;;;;;;10426027;28;21313;-78
2021/06/28 02:11:34;;;;;;;3.20;2.93;;;22.70;35.30;;;;;;10418131;28;20254;-78
2021/06/28 02:16:37;;;;;;;4.20;3.00;;;22.70;35.80;;;;;;10427562;28;20237;-77
2021/06/28 02:21:41;;;;;;;4.90;3.73;;;22.70;35.50;;;;;;10426555;28;20291;-78
2021/06/28 02:26:46;;;;;;;2.90;2.70;;;22.70;35.70;;;;;;10414959;28;20221;-78
2021/06/28 02:31:49;;;;;;;5.33;3.60;;;22.70;36.10;;;;;;10427481;28;20225;-77
2021/06/28 02:36:53;;;;;;;3.60;3.30;;;22.70;35.80;;;;;;10419191;28;20260;-78
2021/06/28 02:41:57;;;;;;;3.53;3.27;;;22.70;35.90;;;;;;10429568;28;20227;-78
2021/06/28 02:47:00;;;;;;;5.20;3.63;;;22.60;36.50;;;;;;10430759;28;20237;-78
2021/06/28 02:52:05;;;;;;;4.13;3.27;;;22.60;35.90;;;;;;10437897;28;20221;-77
2021/06/28 02:57:09;;;;;;;3.73;3.07;;;22.50;36.40;;;;;;10432577;28;20230;-77
2021/06/28 03:02:12;;;;;;;3.50;3.20;;;22.50;36.60;;;;;;10428711;28;20605;-78
2021/06/28 03:07:16;;;;;;;4.60;3.30;;;22.40;35.90;;;;;;10424483;28;20224;-78
2021/06/28 03:12:20;;;;;;;5.30;3.70;;;22.40;36.30;;;;;;10427193;28;20226;-78
2021/06/28 03:17:24;;;;;;;3.87;3.57;;;22.40;36.80;;;;;;10429266;28;20236;-78
2021/06/28 03:22:27;;;;;;;4.97;3.90;;;22.30;36.40;;;;;;10431782;28;20615;-78
2021/06/28 03:27:31;;;;;;;4.27;3.97;;;22.10;36.80;;;;;;10433229;28;20237;-78
2021/06/28 03:32:35;;;;;;;4.77;3.60;;;21.90;37.60;;;;;;10426237;28;20609;-78
2021/06/28 03:37:39;;;;;;;4.17;3.77;;;21.80;37.40;;;;;;10430337;28;20267;-78
2021/06/28 03:42:44;;;;;;;4.13;3.47;;;21.60;37.90;;;;;;10438822;28;20225;-78
2021/06/28 03:47:47;;;;;;;5.37;3.80;;;21.60;37.90;;;;;;10425602;28;20244;-78
2021/06/28 03:52:50;;;;;;;4.20;3.80;;;21.50;37.80;;;;;;10426149;28;20600;-78
2021/06/28 03:57:55;;;;;;;4.17;3.77;;;21.50;37.80;;;;;;10434135;28;20225;-78
2021/06/28 04:03:00;;;;;;;4.83;4.10;;;21.60;38.40;;;;;;10434181;28;20217;-78
2021/06/28 04:08:03;;;;;;;4.37;3.97;;;21.60;38.00;;;;;;10428954;28;20227;-77
2021/06/28 04:13:08;;;;;;;3.80;3.40;;;21.70;38.00;;;;;;10435729;28;20264;-78
2021/06/28 04:18:11;;;;;;;4.80;4.50;;;21.60;38.10;;;;;;10431746;28;20221;-78
2021/06/28 04:23:14;;;;;;;4.40;4.10;;;21.60;37.90;;;;;;10431695;28;20232;-78
2021/06/28 04:28:19;;;;;;;5.03;3.93;;;21.70;38.00;;;;;;10430774;28;20218;-78
2021/06/28 04:33:22;;;;;;;4.43;4.03;;;21.70;39.00;;;;;;10427754;28;20229;-78
2021/06/28 04:38:25;;;;;;;4.20;3.80;;;21.70;38.50;;;;;;10430347;28;20232;-78
2021/06/28 04:43:30;;;;;;;5.87;4.30;;;21.80;38.70;;;;;;10431651;28;20894;-76
2021/06/28 04:48:33;;;;;;;5.03;4.17;;;21.90;39.70;;;;;;10420465;28;20749;-76
2021/06/28 04:53:37;;;;;;;5.47;4.20;;;21.90;39.00;;;;;;10425012;28;20586;-77
2021/06/28 04:58:41;;;;;;;4.70;3.73;;;22.00;39.10;;;;;;10421969;28;20232;-76
2021/06/28 05:03:44;;;;;;;4.33;4.00;;;22.10;39.80;;;;;;10425516;28;20240;-76
2021/06/28 05:08:48;;;;;;;3.90;3.60;;;22.20;39.40;;;;;;10426149;28;20221;-76
2021/06/28 05:13:52;;;;;;;5.20;4.63;;;22.30;38.70;;;;;;10422861;28;20732;-76
2021/06/28 05:18:55;;;;;;;5.97;5.43;;;22.40;40.00;;;;;;10424778;28;20724;-74
2021/06/28 05:23:59;;;;;;;5.47;5.00;;;22.50;39.30;;;;;;10421339;28;20221;-74
2021/06/28 05:29:04;;;;;;;10.07;6.47;;;22.60;39.30;;;;;;10419617;28;20225;-75
2021/06/28 05:34:07;;;;;;;5.90;5.40;;;22.70;40.00;;;;;;10416117;28;20240;-75
2021/06/28 05:39:10;;;;;;;5.23;4.83;;;22.70;38.90;;;;;;10424098;28;20609;-75
2021/06/28 05:44:15;;;;;;;6.07;5.43;;;22.80;39.00;;;;;;10420517;28;20234;-76
2021/06/28 05:49:18;;;;;;;5.17;4.77;;;22.90;39.80;;;;;;10422533;28;20217;-76
2021/06/28 05:54:21;;;;;;;5.33;4.93;;;23.00;39.20;;;;;;10417669;28;20241;-76
2021/06/28 05:59:26;;;;;;;5.47;5.07;;;23.10;39.40;;;;;;10418836;28;20226;-76
2021/06/28 06:04:29;;;;;;;6.77;5.13;;;23.20;40.20;;;;;;10416810;28;20259;-77
2021/06/28 06:09:32;;;;;;;5.77;5.27;;;23.30;40.00;;;;;;10428323;28;20225;-76
2021/06/28 06:14:37;;;;;;;5.73;5.23;;;23.50;40.00;;;;;;10422898;28;20233;-76
2021/06/28 06:19:41;;;;;;;5.10;4.70;;;23.60;40.50;;;;;;10425316;28;20221;-76
2021/06/28 06:24:44;;;;;;;5.33;4.93;;;23.70;39.80;;;;;;10429919;28;20230;-76
2021/06/28 06:29:49;;;;;;;4.90;4.60;;;23.90;39.90;;;;;;10423350;28;20244;-75
2021/06/28 06:34:52;;;;;;;5.20;4.80;;;24.00;40.30;;;;;;10432112;28;20228;-74
2021/06/28 06:39:55;;;;;;;4.60;4.27;;;24.20;40.20;;;;;;10431941;28;20232;-74
2021/06/28 06:45:00;;;;;;;4.23;3.93;;;24.30;40.30;;;;;;10433465;28;20812;-74
2021/06/28 06:50:03;;;;;;;3.90;3.70;;;24.50;40.50;;;;;;10427812;28;20217;-75
2021/06/28 06:55:08;;;;;;;3.80;3.60;;;24.70;39.90;;;;;;10436354;28;20226;-75
2021/06/28 07:00:16;;;;;;;3.90;3.60;;;25.00;40.20;;;;;;10432031;28;20228;-74
2021/06/28 07:05:19;;;;;;;3.70;3.40;;;25.20;39.30;;;;;;10430214;28;20225;-75
2021/06/28 07:10:23;;;;;;;4.23;3.93;;;25.40;39.20;;;;;;10443781;28;20237;-75
2021/06/28 07:15:28;;;;;;;3.60;3.40;;;25.60;39.10;;;;;;10432718;28;20310;-75
2021/06/28 07:20:33;;;;;;;3.70;3.50;;;25.90;38.80;;;;;;10431507;28;20768;-74
2021/06/28 07:25:37;;;;;;;3.67;3.40;;;26.10;38.90;;;;;;10438268;28;20233;-74
2021/06/28 07:30:42;;;;;;;3.70;3.50;;;26.30;38.10;;;;;;10428513;28;20236;-76
2021/06/28 07:35:45;;;;;;;4.10;3.70;;;26.50;37.50;;;;;;10429770;28;20584;-74
2021/06/28 07:40:48;;;;;;;4.20;3.90;;;26.70;37.50;;;;;;10430936;28;20256;-74
2021/06/28 07:45:54;;;;;;;5.13;3.70;;;26.90;37.40;;;;;;10426777;28;20771;-76
2021/06/28 07:50:58;;;;;;;3.63;3.43;;;27.00;37.10;;;;;;10433878;28;20229;-77
2021/06/28 07:56:14;;;;;;;3.87;3.30;;;27.30;37.00;;;;;;10438064;28;20228;-77
2021/06/28 08:01:18;;;;;;;2.97;2.77;;;27.40;36.70;;;;;;10428428;28;20931;-76
2021/06/28 08:06:22;;;;;;;3.00;2.80;;;27.70;35.80;;;;;;10430539;28;20236;-77
2021/06/28 08:11:26;;;;;;;2.70;2.60;;;27.90;35.70;;;;;;10425687;28;20237;-76
2021/06/28 08:16:30;;;;;;;3.17;2.90;;;28.00;35.40;;;;;;10424397;28;20237;-76
2021/06/28 08:21:34;;;;;;;3.00;2.80;;;28.30;34.50;;;;;;10423813;28;20729;-76
2021/06/28 08:26:39;;;;;;;2.73;2.53;;;28.50;34.40;;;;;;10424050;28;20243;-76
2021/06/28 08:31:45;;;;;;;2.60;2.40;;;28.80;34.10;;;;;;10424012;28;20237;-76
2021/06/28 08:36:49;;;;;;;2.60;2.40;;;29.00;33.60;;;;;;10424174;28;20233;-76
2021/06/28 08:41:53;;;;;;;2.40;2.30;;;29.20;33.20;;;;;;10423965;28;20221;-76
2021/06/28 08:46:59;;;;;;;2.53;2.40;;;29.40;32.90;;;;;;10422499;28;20221;-77
2021/06/28 08:52:02;;;;;;;2.63;2.37;;;29.60;31.30;;;;;;10417543;28;22966;-76
2021/06/28 08:57:06;;;;;;;2.50;2.40;;;29.80;32.00;;;;;;10417117;28;20232;-76
2021/06/28 09:02:11;;;;;;;2.20;2.10;;;30.00;31.50;;;;;;10422983;28;20864;-76
2021/06/28 09:07:18;;;;;;;2.30;2.20;;;30.10;31.00;;;;;;10422461;28;20792;-76
2021/06/28 09:12:21;;;;;;;1.97;1.87;;;30.30;30.10;;;;;;10424908;28;20296;-76
2021/06/28 09:17:28;;;;;;;2.00;1.90;;;30.40;30.60;;;;;;10425758;28;20236;-76
2021/06/28 09:22:32;;;;;;;1.80;1.70;;;30.40;29.40;;;;;;10420983;28;20229;-77
2021/06/28 09:27:42;;;;;;;2.57;1.80;;;30.60;30.10;;;;;;10429236;28;20233;-75
2021/06/28 09:32:55;;;;;;;1.87;1.77;;;30.60;29.30;;;;;;10418147;28;20236;-77
2021/06/28 09:38:01;;;;;;;1.70;1.60;;;30.80;28.80;;;;;;10424476;28;20224;-76
2021/06/28 09:43:22;;;;;;;1.80;1.70;;;30.90;29.20;;;;;;10420164;28;20252;-76
2021/06/28 09:48:29;;;;;;;1.87;1.77;;;31.00;28.60;;;;;;10423434;28;20702;-76
2021/06/28 09:53:32;;;;;;;1.70;1.60;;;31.10;28.00;;;;;;10419366;28;20241;-77
2021/06/28 09:58:35;;;;;;;1.90;1.80;;;31.20;28.60;;;;;;10415896;28;20232;-76
2021/06/28 10:03:42;;;;;;;1.90;1.80;;;31.30;28.60;;;;;;10413540;28;20233;-75
2021/06/28 10:08:47;;;;;;;2.53;1.80;;;31.40;27.50;;;;;;10421222;28;20223;-75
2021/06/28 10:13:55;;;;;;;2.10;2.00;;;31.50;28.20;;;;;;10412924;28;20233;-76
2021/06/28 10:19:01;;;;;;;2.50;2.00;;;31.60;27.20;;;;;;10418670;28;20225;-76
2021/06/28 10:24:06;;;;;;;2.10;2.00;;;31.70;26.70;;;;;;10422449;28;20223;-76
2021/06/28 10:29:09;;;;;;;2.00;1.90;;;31.80;26.60;;;;;;10423210;28;20221;-76
2021/06/28 10:34:15;;;;;;;2.00;1.90;;;31.90;27.20;;;;;;10421144;28;20237;-76
2021/06/28 10:39:26;;;;;;;1.90;1.80;;;32.00;26.30;;;;;;10417542;28;20245;-76
2021/06/28 10:44:48;;;;;;;1.93;1.83;;;32.00;26.10;;;;;;10422750;28;20265;-76
2021/06/28 10:49:53;;;;;;;1.73;1.63;;;32.10;26.70;;;;;;10420319;28;20228;-76
2021/06/28 10:54:56;;;;;;;2.00;1.90;;;32.20;25.90;;;;;;10424373;28;20274;-76
2021/06/28 10:59:59;;;;;;;2.10;1.90;;;32.30;26.40;;;;;;10417085;28;20247;-77
2021/06/28 11:05:07;;;;;;;2.10;1.80;;;32.30;25.70;;;;;;10429278;28;20221;-76
2021/06/28 11:10:13;;;;;;;1.80;1.70;;;32.30;24.40;;;;;;10428554;28;20232;-76
2021/06/28 11:15:26;;;;;;;1.80;1.70;;;32.40;24.20;;;;;;10431091;28;20225;-76
2021/06/28 11:20:33;;;;;;;1.80;1.70;;;32.50;24.50;;;;;;10428129;28;20255;-77
2021/06/28 11:25:49;;;;;;;1.80;1.70;;;32.60;24.20;;;;;;10427829;28;20240;-76
2021/06/28 11:31:01;;;;;;;1.90;1.80;;;32.70;24.60;;;;;;10422992;28;20588;-77
2021/06/28 11:36:30;;;;;;;1.50;1.50;;;32.80;23.80;;;;;;10420267;28;20224;-76
2021/06/28 11:41:35;;;;;;;2.30;2.10;;;32.80;24.30;;;;;;10426900;28;20252;-77
2021/06/28 11:46:56;;;;;;;1.97;1.87;;;32.90;24.30;;;;;;10426551;28;20253;-77
2021/06/28 11:52:00;;;;;;;1.80;1.70;;;33.00;24.00;;;;;;10430641;28;20221;-77
2021/06/28 11:57:10;;;;;;;1.70;1.60;;;33.10;23.60;;;;;;10432131;28;20216;-76
2021/06/28 12:02:17;;;;;;;2.30;2.03;;;33.30;22.80;;;;;;10429239;28;20240;-77
2021/06/28 12:07:22;;;;;;;2.00;1.90;;;33.40;22.90;;;;;;10426391;28;20222;-77
2021/06/28 12:12:25;;;;;;;1.70;1.60;;;33.50;22.90;;;;;;10428143;28;20244;-77
2021/06/28 12:17:30;;;;;;;2.00;1.90;;;33.60;23.00;;;;;;10426322;28;20237;-77
2021/06/28 12:22:38;;;;;;;1.90;1.80;;;33.70;23.00;;;;;;10432123;28;20316;-77
2021/06/28 12:27:43;;;;;;;1.97;1.87;;;33.70;21.90;;;;;;10420549;28;20229;-77
2021/06/28 12:32:49;;;;;;;2.10;2.00;;;33.80;22.00;;;;;;10425521;28;20235;-77
2021/06/28 12:37:56;;;;;;;2.00;1.90;;;33.90;22.30;;;;;;10428388;28;20243;-77
2021/06/28 12:43:00;;;;;;;2.00;1.90;;;33.90;21.90;;;;;;10422241;28;20222;-77
2021/06/28 12:48:06;;;;;;;2.03;1.90;;;33.90;22.20;;;;;;10423033;28;20221;-77
2021/06/28 12:53:14;;;;;;;2.00;1.90;;;34.00;21.60;;;;;;10427989;28;20379;-77
2021/06/28 12:58:19;;;;;;;2.00;1.90;;;34.10;21.10;;;;;;10431244;28;20230;-77
2021/06/28 13:03:24;;;;;;;1.90;1.80;;;34.10;21.00;;;;;;10408866;28;20231;-77
2021/06/28 13:08:33;;;;;;;2.40;2.30;;;34.10;20.70;;;;;;10418759;28;20234;-77
2021/06/28 13:13:45;;;;;;;2.53;2.33;;;34.00;21.00;;;;;;10411943;28;20606;-77
2021/06/28 13:18:54;;;;;;;2.10;2.00;;;34.00;21.10;;;;;;10415773;28;20744;-77
2021/06/28 13:24:00;;;;;;;2.60;2.40;;;34.10;20.50;;;;;;10418077;28;20548;-77
2021/06/28 13:29:06;;;;;;;2.63;2.53;;;34.10;21.50;;;;;;10415947;28;20720;-76
2021/06/28 13:34:14;;;;;;;5.83;2.67;;;34.20;21.50;;;;;;10413173;28;20222;-77
2021/06/28 13:39:33;;;;;;;2.63;2.53;;;34.30;21.40;;;;;;10408422;28;20233;-77
2021/06/28 13:44:36;;;;;;;2.90;2.70;;;34.30;20.80;;;;;;10415590;28;20228;-77
2021/06/28 13:49:40;;;;;;;2.67;2.57;;;34.40;21.20;;;;;;10414407;28;20230;-77
2021/06/28 13:54:44;;;;;;;2.90;2.70;;;34.30;21.00;;;;;;10420244;28;20238;-77
2021/06/28 13:59:47;;;;;;;2.90;2.80;;;34.40;20.60;;;;;;10416405;28;20239;-77
2021/06/28 14:04:51;;;;;;;2.77;2.60;;;34.50;20.60;;;;;;10418627;28;20220;-78
2021/06/28 14:09:55;;;;;;;3.00;2.80;;;34.50;20.40;;;;;;10416664;28;20231;-77
2021/06/28 14:14:59;;;;;;;2.70;2.50;;;34.50;20.10;;;;;;10421082;28;20715;-77
2021/06/28 14:20:02;;;;;;;2.53;2.43;;;34.50;20.20;;;;;;10421955;28;20210;-75
2021/06/28 14:25:08;;;;;;;2.80;2.60;;;34.50;20.30;;;;;;10419759;28;20227;-77
2021/06/28 14:30:13;;;;;;;2.60;2.50;;;34.50;19.90;;;;;;10414949;28;20225;-77
2021/06/28 14:35:21;;;;;;;2.50;2.40;;;34.50;20.10;;;;;;10420117;28;20232;-77
2021/06/28 14:40:26;;;;;;;2.40;2.30;;;34.50;19.80;;;;;;10420551;28;21231;-77
2021/06/28 14:45:29;;;;;;;3.10;2.70;;;34.60;19.30;;;;;;10430720;28;20233;-76
2021/06/28 14:50:32;;;;;;;3.07;2.77;;;34.60;19.70;;;;;;10429798;28;20741;-77
2021/06/28 14:55:38;;;;;;;3.00;2.70;;;34.60;19.60;;;;;;10429745;28;20230;-77
2021/06/28 15:00:41;;;;;;;2.80;2.60;;;34.60;19.20;;;;;;10424905;28;20230;-77
2021/06/28 15:05:49;;;;;;;2.60;2.50;;;34.70;20.00;;;;;;10428259;28;20336;-77
2021/06/28 15:10:53;;;;;;;2.60;2.50;;;34.70;19.10;;;;;;10430433;28;20232;-77
2021/06/28 15:15:57;;;;;;;2.67;2.53;;;34.70;18.90;;;;;;10424788;28;20230;-77
2021/06/28 15:21:01;;;;;;;2.83;2.63;;;34.60;18.90;;;;;;10428053;28;20653;-77
2021/06/28 15:26:05;;;;;;;2.70;2.50;;;34.60;18.80;;;;;;10427841;28;20218;-77
2021/06/28 15:31:10;;;;;;;2.73;2.63;;;34.50;18.20;;;;;;10430105;28;20230;-77
2021/06/28 15:36:13;;;;;;;3.13;2.93;;;34.50;18.80;;;;;;10431584;28;20238;-77
2021/06/28 15:41:18;;;;;;;3.80;2.67;;;34.40;19.10;;;;;;10428543;28;20228;-77
2021/06/28 15:46:23;;;;;;;2.90;2.70;;;34.30;18.80;;;;;;10422095;28;20233;-77
2021/06/28 15:51:26;;;;;;;2.87;2.67;;;34.30;19.30;;;;;;10422125;28;20246;-76
2021/06/28 15:56:31;;;;;;;2.80;2.60;;;34.30;19.20;;;;;;10421279;28;20668;-76
2021/06/28 16:01:37;;;;;;;3.63;3.40;;;34.40;19.60;;;;;;10423424;28;20232;-77
2021/06/28 16:06:42;;;;;;;3.73;3.43;;;34.40;19.40;;;;;;10422882;28;20238;-77
2021/06/28 16:11:46;;;;;;;2.83;2.73;;;34.50;19.30;;;;;;10424620;28;20243;-77
2021/06/28 16:16:49;;;;;;;2.90;2.70;;;34.50;18.90;;;;;;10425950;28;20249;-71
2021/06/28 16:21:52;;;;;;;2.73;2.53;;;34.50;19.20;;;;;;10426350;28;20268;-78
2021/06/28 16:26:57;;;;;;;3.17;2.87;;;34.50;19.10;;;;;;10432550;28;20601;-78
2021/06/28 16:32:00;;;;;;;2.60;2.50;;;34.50;19.00;;;;;;10432477;28;20232;-78
2021/06/28 16:37:04;;;;;;;2.63;2.53;;;34.60;19.20;;;;;;10429020;28;20790;-77
2021/06/28 16:42:09;;;;;;;3.00;2.80;;;34.70;19.20;;;;;;10426975;28;20238;-76
2021/06/28 16:47:13;;;;;;;8.23;4.93;;;34.70;18.60;;;;;;10426094;28;20242;-77
2021/06/28 16:52:16;;;;;;;4.00;3.70;;;34.70;19.10;;;;;;10426362;28;20235;-76
2021/06/28 16:57:20;;;;;;;3.40;3.10;;;34.60;18.90;;;;;;10463925;23;20229;-78
2021/06/28 17:02:24;;;;;;;3.00;2.80;;;34.60;18.80;;;;;;10476862;28;20243;-77
2021/06/28 17:07:27;;;;;;;2.60;2.50;;;34.60;18.90;;;;;;10471210;28;20234;-78
2021/06/28 17:12:32;;;;;;;2.47;2.33;;;34.60;18.60;;;;;;10479995;28;20237;-77
2021/06/28 17:17:35;;;;;;;2.30;2.20;;;34.60;18.40;;;;;;10470455;28;20247;-77
2021/06/28 17:22:43;;;;;;;2.30;2.17;;;34.50;18.60;;;;;;10474217;28;20236;-77
2021/06/28 17:27:48;;;;;;;2.30;2.20;;;34.60;18.60;;;;;;10461616;28;20233;-77
2021/06/28 17:32:52;;;;;;;2.47;2.27;;;34.60;18.40;;;;;;10467840;28;20235;-77
2021/06/28 17:37:55;;;;;;;2.30;2.20;;;34.60;18.20;;;;;;10470596;28;20324;-77
2021/06/28 17:43:00;;;;;;;2.10;2.00;;;34.60;18.30;;;;;;10473451;28;20239;-77
2021/06/28 17:48:04;;;;;;;2.10;2.00;;;34.50;17.80;;;;;;10465558;28;20816;-77
2021/06/28 17:53:07;;;;;;;2.30;2.10;;;34.50;18.20;;;;;;10452991;28;20305;-77
2021/06/28 17:58:12;;;;;;;2.00;1.90;;;34.40;18.10;;;;;;10474229;28;20229;-77
2021/06/28 18:03:15;;;;;;;2.57;1.93;;;34.30;18.10;;;;;;10463908;28;20237;-77
2021/06/28 18:08:18;;;;;;;1.90;1.80;;;34.20;18.40;;;;;;10466613;28;20221;-77
2021/06/28 18:13:32;;;;;;;1.90;1.80;;;34.10;18.60;;;;;;10461257;28;20301;-76
2021/06/28 18:18:38;;;;;;;2.40;2.20;;;33.90;18.90;;;;;;10467323;28;20231;-78
2021/06/28 18:23:43;;;;;;;2.00;1.90;;;33.70;18.90;;;;;;10473901;28;20240;-77
2021/06/28 18:28:49;;;;;;;2.20;2.10;;;33.50;19.10;;;;;;10474041;28;20234;-77
2021/06/28 18:33:52;;;;;;;2.73;2.50;;;33.30;19.60;;;;;;10458598;28;20228;-77
2021/06/28 18:38:55;;;;;;;2.40;2.20;;;33.10;19.40;;;;;;10481300;28;20232;-76
2021/06/28 18:43:59;;;;;;;2.20;2.10;;;33.00;19.70;;;;;;10468794;28;20719;-77
2021/06/28 18:49:03;;;;;;;2.33;2.23;;;32.80;19.50;;;;;;10466223;28;20232;-78
2021/06/28 18:54:06;;;;;;;2.33;2.13;;;32.70;19.90;;;;;;10466078;28;20232;-79
2021/06/28 18:59:14;;;;;;;2.03;1.93;;;32.50;19.90;;;;;;10456568;28;20224;-77
2021/06/28 19:04:18;;;;;;;2.93;2.17;;;32.30;20.20;;;;;;10467128;28;20235;-76
2021/06/28 19:09:21;;;;;;;2.63;2.20;;;32.20;20.40;;;;;;10479528;28;20220;-78
2021/06/28 19:14:26;;;;;;;3.27;2.30;;;32.10;20.60;;;;;;10486540;28;20236;-77
2021/06/28 19:19:29;;;;;;;4.30;2.50;;;32.00;20.90;;;;;;10482701;28;20239;-77
2021/06/28 19:24:33;;;;;;;3.30;3.00;;;32.00;21.20;;;;;;10474742;28;20242;-77
2021/06/28 19:29:37;;;;;;;3.30;2.60;;;31.90;21.60;;;;;;10482829;28;20225;-77
2021/06/28 19:34:41;;;;;;;2.87;2.63;;;31.80;22.00;;;;;;10485785;28;20228;-77
2021/06/28 19:39:44;;;;;;;2.70;2.50;;;31.60;21.90;;;;;;10467870;28;20228;-78
2021/06/28 19:44:51;;;;;;;2.60;2.47;;;31.50;21.90;;;;;;10460595;28;20758;-77
2021/06/28 19:49:54;;;;;;;2.93;2.73;;;31.30;22.30;;;;;;10473844;28;20265;-78
2021/06/28 19:54:58;;;;;;;3.70;3.00;;;31.00;21.60;;;;;;10473540;28;20228;-79
2021/06/28 20:00:06;;;;;;;3.97;2.80;;;30.60;22.30;;;;;;10525434;28;20813;-76
2021/06/28 20:05:10;;;;;;;3.10;2.90;;;30.20;23.80;;;;;;10520217;28;20224;-77
2021/06/28 20:10:14;;;;;;;3.50;3.30;;;29.80;23.80;;;;;;10522734;28;20228;-77
2021/06/28 20:15:22;;;;;;;3.30;3.10;;;29.70;24.30;;;;;;10516316;28;20239;-77
2021/06/28 20:20:26;;;;;;;3.63;3.23;;;29.60;24.70;;;;;;10512599;28;20234;-77
2021/06/28 20:25:32;;;;;;;5.20;3.63;;;29.60;24.80;;;;;;10521583;27;20227;-77
2021/06/28 20:30:37;;;;;;;3.83;3.53;;;29.70;24.90;;;;;;10514614;28;20238;-77
2021/06/28 20:35:40;;;;;;;3.50;3.23;;;29.70;25.40;;;;;;10515089;28;20234;-77
2021/06/28 20:40:45;;;;;;;3.93;3.50;;;29.80;25.00;;;;;;10521967;27;20241;-77
2021/06/28 20:45:49;;;;;;;4.10;3.80;;;29.70;25.40;;;;;;10512415;28;20238;-78
2021/06/28 20:50:52;;;;;;;4.70;4.00;;;29.70;25.80;;;;;;10521910;28;20228;-77
2021/06/28 20:55:56;;;;;;;4.43;4.00;;;29.60;26.00;;;;;;10513586;28;20231;-77
2021/06/28 21:01:00;;;;;;;5.37;4.37;;;29.40;25.90;;;;;;10526032;28;20357;-79
2021/06/28 21:06:03;;;;;;;10.73;4.90;;;29.20;27.20;;;;;;10507356;28;20235;-77
2021/06/28 21:11:07;;;;;;;4.77;4.33;;;29.00;27.90;;;;;;10518079;28;20223;-78
2021/06/28 21:16:11;;;;;;;8.77;4.77;;;28.60;28.60;;;;;;10524203;28;20228;-76
2021/06/28 21:21:15;;;;;;;4.63;4.23;;;28.20;30.10;;;;;;10524402;27;20219;-77
2021/06/28 21:26:18;;;;;;;4.37;3.97;;;27.80;29.30;;;;;;10522966;28;20962;-77
2021/06/28 21:31:23;;;;;;;5.67;3.90;;;27.60;29.70;;;;;;10524501;28;20227;-76
2021/06/28 21:36:45;;;;;;;7.80;4.57;;;27.50;30.00;;;;;;10485579;28;20334;-77
2021/06/28 21:41:55;;;;;;;5.07;4.17;;;27.50;30.00;;;;;;10523627;28;20257;-77
2021/06/28 21:47:00;;;;;;;4.57;4.17;;;27.40;29.90;;;;;;10507801;28;20224;-77
2021/06/28 21:52:03;;;;;;;4.70;4.10;;;27.30;31.70;;;;;;10521480;28;20254;-76
2021/06/28 21:57:07;;;;;;;4.10;3.70;;;27.00;31.10;;;;;;10517109;28;20719;-76
2021/06/28 22:02:11;;;;;;;3.80;3.50;;;26.70;31.70;;;;;;10523208;28;20219;-81
2021/06/28 22:07:14;;;;;;;3.80;2.50;;;26.30;32.70;;;;;;10517868;28;20223;-77
2021/06/28 22:12:18;;;;;;;2.43;2.20;;;26.10;31.70;;;;;;10515829;28;20235;-77
2021/06/28 22:17:22;;;;;;;4.00;2.50;;;25.80;31.80;;;;;;10527390;28;20227;-77
2021/06/28 22:22:25;;;;;;;3.13;2.40;;;25.60;33.40;;;;;;10518032;28;20234;-76
2021/06/28 22:27:30;;;;;;;2.03;1.90;;;25.30;32.50;;;;;;10522314;28;20565;-78
2021/06/28 22:32:34;;;;;;;2.37;2.17;;;25.10;33.70;;;;;;10513847;28;20234;-77
2021/06/28 22:37:38;;;;;;;2.47;2.10;;;24.90;34.40;;;;;;10519550;28;20254;-76
2021/06/28 22:42:42;;;;;;;1.87;1.77;;;24.60;33.60;;;;;;10509686;28;20233;-76
2021/06/28 22:47:48;;;;;;;3.17;1.77;;;24.40;34.50;;;;;;10501434;28;20235;-76
2021/06/28 22:52:51;;;;;;;1.70;1.60;;;24.30;34.80;;;;;;10517834;28;20965;-76
2021/06/28 22:57:55;;;;;;;1.70;1.60;;;24.20;34.10;;;;;;10506989;28;20244;-76
2021/06/28 23:02:59;;;;;;;2.63;1.70;;;24.00;34.20;;;;;;10524926;28;20232;-76
2021/06/28 23:08:03;;;;;;;2.07;1.83;;;23.90;35.30;;;;;;10527362;28;21950;-76
2021/06/28 23:13:06;;;;;;;1.60;1.50;;;23.80;34.60;;;;;;10514451;28;20230;-76
2021/06/28 23:18:11;;;;;;;2.47;1.83;;;23.80;34.70;;;;;;10519862;28;20236;-76
2021/06/28 23:23:14;;;;;;;2.50;1.50;;;23.70;35.40;;;;;;10522672;28;20753;-75
2021/06/28 23:28:18;;;;;;;1.50;1.40;;;23.70;34.90;;;;;;10520208;28;20620;-76
2021/06/28 23:33:22;;;;;;;2.27;1.50;;;23.70;35.00;;;;;;10515887;28;20224;-76
2021/06/28 23:38:26;;;;;;;1.50;1.40;;;23.70;35.70;;;;;;10524925;28;20710;-76
2021/06/28 23:43:29;;;;;;;1.80;1.30;;;23.60;34.90;;;;;;10524611;28;20246;-75
2021/06/28 23:48:33;;;;;;;1.50;1.40;;;23.50;35.10;;;;;;10525027;28;20243;-75
2021/06/28 23:53:37;;;;;;;1.63;1.43;;;23.50;36.00;;;;;;10524517;28;20235;-75
2021/06/28 23:58:40;;;;;;;2.00;1.50;;;23.50;35.30;;;;;;10529756;28;20238;-75
